sensor_id;sensor_type;location;lat;lon;timestamp;P1;durP1;ratioP1;P2;durP2;ratioP2
75169;SDS011;63749;49.186;9.222;2023-04-25T00:01:37;6.77;;;4.30;;
75169;SDS011;63749;49.186;9.222;2023-04-25T00:04:03;6.68;;;4.20;;
75169;SDS011;63749;49.186;9.222;2023-04-25T00:06:31;6.40;;;3.73;;
75169;SDS011;63749;49.186;9.222;2023-04-25T00:08:57;8.10;;;4.53;;
75169;SDS011;63749;49.186;9.222;2023-04-25T00:11:22;6.90;;;4.30;;
75169;SDS011;63749;49.186;9.222;2023-04-25T00:13:48;8.67;;;4.03;;
75169;SDS011;63749;49.186;9.222;2023-04-25T00:16:15;6.30;;;4.10;;
75169;SDS011;63749;49.186;9.222;2023-04-25T00:18:41;7.50;;;4.60;;
75169;SDS011;63749;49.186;9.222;2023-04-25T00:21:07;7.05;;;4.07;;
75169;SDS011;63749;49.186;9.222;2023-04-25T00:23:33;6.80;;;4.10;;
75169;SDS011;63749;49.186;9.222;2023-04-25T00:26:01;7.38;;;4.35;;
75169;SDS011;63749;49.186;9.222;2023-04-25T00:28:27;7.47;;;4.60;;
75169;SDS011;63749;49.186;9.222;2023-04-25T00:30:52;5.20;;;3.90;;
75169;SDS011;63749;49.186;9.222;2023-04-25T00:33:18;5.90;;;3.70;;
75169;SDS011;63749;49.186;9.222;2023-04-25T00:35:43;5.93;;;3.80;;
75169;SDS011;63749;49.186;9.222;2023-04-25T00:38:08;5.33;;;3.17;;
75169;SDS011;63749;49.186;9.222;2023-04-25T00:40:34;4.93;;;3.27;;
75169;SDS011;63749;49.186;9.222;2023-04-25T00:43:00;4.43;;;3.10;;
75169;SDS011;63749;49.186;9.222;2023-04-25T00:45:28;4.07;;;2.73;;
75169;SDS011;63749;49.186;9.222;2023-04-25T00:47:55;4.57;;;2.78;;
75169;SDS011;63749;49.186;9.222;2023-04-25T00:50:21;3.97;;;2.88;;
75169;SDS011;63749;49.186;9.222;2023-04-25T00:52:47;5.20;;;2.90;;
75169;SDS011;63749;49.186;9.222;2023-04-25T00:55:12;4.73;;;3.20;;
75169;SDS011;63749;49.186;9.222;2023-04-25T00:57:38;4.85;;;3.08;;
75169;SDS011;63749;49.186;9.222;2023-04-25T01:00:04;4.10;;;2.90;;
75169;SDS011;63749;49.186;9.222;2023-04-25T01:02:31;4.80;;;3.30;;
75169;SDS011;63749;49.186;9.222;2023-04-25T01:04:58;4.90;;;3.30;;
75169;SDS011;63749;49.186;9.222;2023-04-25T01:07:24;4.97;;;3.23;;
75169;SDS011;63749;49.186;9.222;2023-04-25T01:09:51;4.90;;;3.40;;
75169;SDS011;63749;49.186;9.222;2023-04-25T01:12:17;5.32;;;3.30;;
75169;SDS011;63749;49.186;9.222;2023-04-25T01:14:42;5.43;;;3.50;;
75169;SDS011;63749;49.186;9.222;2023-04-25T01:17:08;5.37;;;3.43;;
75169;SDS011;63749;49.186;9.222;2023-04-25T01:19:34;5.80;;;3.50;;
75169;SDS011;63749;49.186;9.222;2023-04-25T01:22:00;6.03;;;3.72;;
75169;SDS011;63749;49.186;9.222;2023-04-25T01:24:26;6.17;;;3.87;;
75169;SDS011;63749;49.186;9.222;2023-04-25T01:26:51;5.95;;;3.92;;
75169;SDS011;63749;49.186;9.222;2023-04-25T01:29:18;6.03;;;4.00;;
75169;SDS011;63749;49.186;9.222;2023-04-25T01:31:45;6.32;;;4.00;;
75169;SDS011;63749;49.186;9.222;2023-04-25T01:34:11;5.93;;;4.30;;
75169;SDS011;63749;49.186;9.222;2023-04-25T01:36:36;7.75;;;4.40;;
75169;SDS011;63749;49.186;9.222;2023-04-25T01:39:02;6.20;;;4.30;;
75169;SDS011;63749;49.186;9.222;2023-04-25T01:41:28;6.50;;;4.22;;
75169;SDS011;63749;49.186;9.222;2023-04-25T01:43:54;7.17;;;4.47;;
75169;SDS011;63749;49.186;9.222;2023-04-25T01:46:20;6.18;;;4.18;;
75169;SDS011;63749;49.186;9.222;2023-04-25T01:48:46;6.60;;;4.18;;
75169;SDS011;63749;49.186;9.222;2023-04-25T01:51:11;6.60;;;4.33;;
75169;SDS011;63749;49.186;9.222;2023-04-25T01:53:37;7.53;;;4.10;;
75169;SDS011;63749;49.186;9.222;2023-04-25T01:56:03;7.70;;;4.78;;
75169;SDS011;63749;49.186;9.222;2023-04-25T01:58:29;6.95;;;4.22;;
75169;SDS011;63749;49.186;9.222;2023-04-25T02:00:54;8.37;;;4.60;;
75169;SDS011;63749;49.186;9.222;2023-04-25T02:03:19;6.87;;;4.30;;
75169;SDS011;63749;49.186;9.222;2023-04-25T02:05:45;6.47;;;4.43;;
75169;SDS011;63749;49.186;9.222;2023-04-25T02:08:10;7.40;;;4.40;;
75169;SDS011;63749;49.186;9.222;2023-04-25T02:10:36;7.93;;;4.90;;
75169;SDS011;63749;49.186;9.222;2023-04-25T02:13:02;7.45;;;4.57;;
75169;SDS011;63749;49.186;9.222;2023-04-25T02:15:28;8.10;;;4.80;;
75169;SDS011;63749;49.186;9.222;2023-04-25T02:17:53;7.37;;;4.70;;
75169;SDS011;63749;49.186;9.222;2023-04-25T02:20:22;6.97;;;4.65;;
75169;SDS011;63749;49.186;9.222;2023-04-25T02:22:48;8.10;;;4.80;;
75169;SDS011;63749;49.186;9.222;2023-04-25T02:25:14;7.20;;;4.75;;
75169;SDS011;63749;49.186;9.222;2023-04-25T02:27:41;8.07;;;4.55;;
75169;SDS011;63749;49.186;9.222;2023-04-25T02:30:07;7.13;;;4.50;;
75169;SDS011;63749;49.186;9.222;2023-04-25T02:32:33;6.75;;;4.45;;
75169;SDS011;63749;49.186;9.222;2023-04-25T02:34:59;8.45;;;4.70;;
75169;SDS011;63749;49.186;9.222;2023-04-25T02:37:28;6.95;;;4.53;;
75169;SDS011;63749;49.186;9.222;2023-04-25T02:39:56;6.37;;;4.30;;
75169;SDS011;63749;49.186;9.222;2023-04-25T02:42:22;6.87;;;4.20;;
75169;SDS011;63749;49.186;9.222;2023-04-25T02:44:47;7.25;;;4.57;;
75169;SDS011;63749;49.186;9.222;2023-04-25T02:47:13;7.43;;;4.77;;
75169;SDS011;63749;49.186;9.222;2023-04-25T02:49:38;8.23;;;4.83;;
75169;SDS011;63749;49.186;9.222;2023-04-25T02:52:03;8.83;;;4.67;;
75169;SDS011;63749;49.186;9.222;2023-04-25T02:54:29;7.50;;;4.50;;
75169;SDS011;63749;49.186;9.222;2023-04-25T02:56:55;8.00;;;4.70;;
75169;SDS011;63749;49.186;9.222;2023-04-25T02:59:20;7.20;;;4.50;;
75169;SDS011;63749;49.186;9.222;2023-04-25T03:01:45;6.97;;;4.47;;
75169;SDS011;63749;49.186;9.222;2023-04-25T03:04:11;7.00;;;4.55;;
75169;SDS011;63749;49.186;9.222;2023-04-25T03:06:36;7.63;;;4.50;;
75169;SDS011;63749;49.186;9.222;2023-04-25T03:09:02;7.60;;;4.53;;
75169;SDS011;63749;49.186;9.222;2023-04-25T03:11:27;7.67;;;4.53;;
75169;SDS011;63749;49.186;9.222;2023-04-25T03:13:52;7.53;;;4.80;;
75169;SDS011;63749;49.186;9.222;2023-04-25T03:16:18;6.33;;;4.10;;
75169;SDS011;63749;49.186;9.222;2023-04-25T03:18:43;7.00;;;4.25;;
75169;SDS011;63749;49.186;9.222;2023-04-25T03:21:08;7.37;;;4.43;;
75169;SDS011;63749;49.186;9.222;2023-04-25T03:23:34;6.83;;;4.73;;
75169;SDS011;63749;49.186;9.222;2023-04-25T03:25:59;6.50;;;4.50;;
75169;SDS011;63749;49.186;9.222;2023-04-25T03:28:24;7.63;;;4.77;;
75169;SDS011;63749;49.186;9.222;2023-04-25T03:30:50;8.35;;;4.90;;
75169;SDS011;63749;49.186;9.222;2023-04-25T03:33:15;7.93;;;4.50;;
75169;SDS011;63749;49.186;9.222;2023-04-25T03:35:41;9.97;;;4.93;;
75169;SDS011;63749;49.186;9.222;2023-04-25T03:38:07;7.47;;;4.95;;
75169;SDS011;63749;49.186;9.222;2023-04-25T03:40:33;8.57;;;5.10;;
75169;SDS011;63749;49.186;9.222;2023-04-25T03:42:58;7.97;;;5.00;;
75169;SDS011;63749;49.186;9.222;2023-04-25T03:45:23;7.67;;;5.10;;
75169;SDS011;63749;49.186;9.222;2023-04-25T03:47:49;8.82;;;5.20;;
75169;SDS011;63749;49.186;9.222;2023-04-25T03:50:14;8.13;;;5.30;;
75169;SDS011;63749;49.186;9.222;2023-04-25T03:52:40;8.80;;;5.30;;
75169;SDS011;63749;49.186;9.222;2023-04-25T03:55:05;10.70;;;5.40;;
75169;SDS011;63749;49.186;9.222;2023-04-25T03:57:31;9.35;;;5.50;;
75169;SDS011;63749;49.186;9.222;2023-04-25T03:59:56;9.47;;;5.50;;
75169;SDS011;63749;49.186;9.222;2023-04-25T04:02:22;9.67;;;6.17;;
75169;SDS011;63749;49.186;9.222;2023-04-25T04:04:47;8.93;;;5.67;;
75169;SDS011;63749;49.186;9.222;2023-04-25T04:07:12;12.73;;;5.72;;
75169;SDS011;63749;49.186;9.222;2023-04-25T04:09:38;11.13;;;5.60;;
75169;SDS011;63749;49.186;9.222;2023-04-25T04:12:03;8.80;;;5.50;;
75169;SDS011;63749;49.186;9.222;2023-04-25T04:14:28;10.83;;;6.20;;
75169;SDS011;63749;49.186;9.222;2023-04-25T04:16:54;8.83;;;5.50;;
75169;SDS011;63749;49.186;9.222;2023-04-25T04:19:19;10.20;;;6.27;;
75169;SDS011;63749;49.186;9.222;2023-04-25T04:21:45;9.45;;;6.10;;
75169;SDS011;63749;49.186;9.222;2023-04-25T04:24:10;9.43;;;6.00;;
75169;SDS011;63749;49.186;9.222;2023-04-25T04:26:36;12.03;;;6.57;;
75169;SDS011;63749;49.186;9.222;2023-04-25T04:29:02;11.70;;;6.38;;
75169;SDS011;63749;49.186;9.222;2023-04-25T04:31:27;12.32;;;6.68;;
75169;SDS011;63749;49.186;9.222;2023-04-25T04:33:53;10.30;;;6.80;;
75169;SDS011;63749;49.186;9.222;2023-04-25T04:36:18;12.27;;;6.20;;
75169;SDS011;63749;49.186;9.222;2023-04-25T04:38:48;13.65;;;7.55;;
75169;SDS011;63749;49.186;9.222;2023-04-25T04:41:13;11.60;;;6.63;;
75169;SDS011;63749;49.186;9.222;2023-04-25T04:43:39;13.53;;;7.03;;
75169;SDS011;63749;49.186;9.222;2023-04-25T04:46:04;11.87;;;7.53;;
75169;SDS011;63749;49.186;9.222;2023-04-25T04:48:33;12.80;;;7.30;;
75169;SDS011;63749;49.186;9.222;2023-04-25T04:50:59;12.98;;;6.65;;
75169;SDS011;63749;49.186;9.222;2023-04-25T04:53:25;13.93;;;7.53;;
75169;SDS011;63749;49.186;9.222;2023-04-25T04:55:50;14.50;;;7.47;;
75169;SDS011;63749;49.186;9.222;2023-04-25T04:58:16;14.27;;;7.60;;
75169;SDS011;63749;49.186;9.222;2023-04-25T05:00:41;12.03;;;7.13;;
75169;SDS011;63749;49.186;9.222;2023-04-25T05:03:07;11.53;;;7.60;;
75169;SDS011;63749;49.186;9.222;2023-04-25T05:05:32;12.63;;;7.57;;
75169;SDS011;63749;49.186;9.222;2023-04-25T05:07:57;12.70;;;7.53;;
75169;SDS011;63749;49.186;9.222;2023-04-25T05:10:23;13.87;;;7.70;;
75169;SDS011;63749;49.186;9.222;2023-04-25T05:12:48;12.97;;;7.10;;
75169;SDS011;63749;49.186;9.222;2023-04-25T05:15:13;13.33;;;7.27;;
75169;SDS011;63749;49.186;9.222;2023-04-25T05:17:39;13.90;;;7.83;;
75169;SDS011;63749;49.186;9.222;2023-04-25T05:20:07;16.00;;;7.83;;
75169;SDS011;63749;49.186;9.222;2023-04-25T05:22:36;13.63;;;7.68;;
75169;SDS011;63749;49.186;9.222;2023-04-25T05:25:02;13.98;;;7.40;;
75169;SDS011;63749;49.186;9.222;2023-04-25T05:27:28;13.45;;;6.93;;
75169;SDS011;63749;49.186;9.222;2023-04-25T05:29:54;11.80;;;6.50;;
75169;SDS011;63749;49.186;9.222;2023-04-25T05:32:19;12.27;;;6.10;;
75169;SDS011;63749;49.186;9.222;2023-04-25T05:34:45;10.73;;;6.40;;
75169;SDS011;63749;49.186;9.222;2023-04-25T05:37:10;11.98;;;6.32;;
75169;SDS011;63749;49.186;9.222;2023-04-25T05:39:35;15.10;;;7.00;;
75169;SDS011;63749;49.186;9.222;2023-04-25T05:42:01;11.47;;;6.50;;
75169;SDS011;63749;49.186;9.222;2023-04-25T05:44:26;12.77;;;7.07;;
75169;SDS011;63749;49.186;9.222;2023-04-25T05:46:51;10.60;;;6.70;;
75169;SDS011;63749;49.186;9.222;2023-04-25T05:49:17;13.10;;;7.10;;
75169;SDS011;63749;49.186;9.222;2023-04-25T05:51:42;17.03;;;8.00;;
75169;SDS011;63749;49.186;9.222;2023-04-25T05:54:07;15.27;;;8.07;;
75169;SDS011;63749;49.186;9.222;2023-04-25T05:56:33;13.60;;;7.17;;
75169;SDS011;63749;49.186;9.222;2023-04-25T05:58:58;11.33;;;7.00;;
75169;SDS011;63749;49.186;9.222;2023-04-25T06:01:23;15.57;;;8.00;;
75169;SDS011;63749;49.186;9.222;2023-04-25T06:03:49;13.17;;;7.10;;
75169;SDS011;63749;49.186;9.222;2023-04-25T06:06:16;11.50;;;6.72;;
75169;SDS011;63749;49.186;9.222;2023-04-25T06:08:41;10.50;;;6.82;;
75169;SDS011;63749;49.186;9.222;2023-04-25T06:11:07;12.47;;;7.40;;
75169;SDS011;63749;49.186;9.222;2023-04-25T06:13:32;12.13;;;6.90;;
75169;SDS011;63749;49.186;9.222;2023-04-25T06:15:58;11.67;;;6.70;;
75169;SDS011;63749;49.186;9.222;2023-04-25T06:18:23;11.55;;;7.00;;
75169;SDS011;63749;49.186;9.222;2023-04-25T06:20:48;9.20;;;6.30;;
75169;SDS011;63749;49.186;9.222;2023-04-25T06:23:14;11.43;;;6.80;;
75169;SDS011;63749;49.186;9.222;2023-04-25T06:25:39;11.30;;;7.03;;
75169;SDS011;63749;49.186;9.222;2023-04-25T06:28:04;10.00;;;6.33;;
75169;SDS011;63749;49.186;9.222;2023-04-25T06:30:30;10.83;;;6.67;;
75169;SDS011;63749;49.186;9.222;2023-04-25T06:32:55;10.25;;;6.80;;
75169;SDS011;63749;49.186;9.222;2023-04-25T06:35:21;14.00;;;7.27;;
75169;SDS011;63749;49.186;9.222;2023-04-25T06:37:46;9.97;;;6.50;;
75169;SDS011;63749;49.186;9.222;2023-04-25T06:40:12;10.23;;;6.88;;
75169;SDS011;63749;49.186;9.222;2023-04-25T06:42:37;12.03;;;6.87;;
75169;SDS011;63749;49.186;9.222;2023-04-25T06:45:03;9.97;;;6.23;;
75169;SDS011;63749;49.186;9.222;2023-04-25T06:47:28;10.38;;;6.82;;
75169;SDS011;63749;49.186;9.222;2023-04-25T06:49:54;9.53;;;6.43;;
75169;SDS011;63749;49.186;9.222;2023-04-25T06:52:20;11.05;;;6.97;;
75169;SDS011;63749;49.186;9.222;2023-04-25T06:54:46;9.70;;;6.50;;
75169;SDS011;63749;49.186;9.222;2023-04-25T06:57:11;12.90;;;6.90;;
75169;SDS011;63749;49.186;9.222;2023-04-25T06:59:36;11.55;;;7.25;;
75169;SDS011;63749;49.186;9.222;2023-04-25T07:02:02;10.47;;;6.47;;
75169;SDS011;63749;49.186;9.222;2023-04-25T07:04:28;12.65;;;7.18;;
75169;SDS011;63749;49.186;9.222;2023-04-25T07:06:54;10.80;;;7.40;;
75169;SDS011;63749;49.186;9.222;2023-04-25T07:09:19;12.15;;;7.22;;
75169;SDS011;63749;49.186;9.222;2023-04-25T07:11:45;11.43;;;7.27;;
75169;SDS011;63749;49.186;9.222;2023-04-25T07:14:10;11.47;;;7.40;;
75169;SDS011;63749;49.186;9.222;2023-04-25T07:16:35;11.63;;;7.37;;
75169;SDS011;63749;49.186;9.222;2023-04-25T07:19:01;13.23;;;7.37;;
75169;SDS011;63749;49.186;9.222;2023-04-25T07:21:26;10.87;;;7.47;;
75169;SDS011;63749;49.186;9.222;2023-04-25T07:23:52;12.32;;;7.90;;
75169;SDS011;63749;49.186;9.222;2023-04-25T07:26:17;11.83;;;7.40;;
75169;SDS011;63749;49.186;9.222;2023-04-25T07:28:42;12.63;;;7.97;;
75169;SDS011;63749;49.186;9.222;2023-04-25T07:31:08;11.30;;;7.77;;
75169;SDS011;63749;49.186;9.222;2023-04-25T07:33:33;11.25;;;7.65;;
75169;SDS011;63749;49.186;9.222;2023-04-25T07:35:59;11.53;;;7.67;;
75169;SDS011;63749;49.186;9.222;2023-04-25T07:38:25;12.23;;;8.10;;
75169;SDS011;63749;49.186;9.222;2023-04-25T07:40:50;10.97;;;7.43;;
75169;SDS011;63749;49.186;9.222;2023-04-25T07:43:16;11.20;;;7.60;;
75169;SDS011;63749;49.186;9.222;2023-04-25T07:45:42;13.13;;;8.05;;
75169;SDS011;63749;49.186;9.222;2023-04-25T07:48:08;12.02;;;7.88;;
75169;SDS011;63749;49.186;9.222;2023-04-25T07:50:33;12.27;;;8.47;;
75169;SDS011;63749;49.186;9.222;2023-04-25T07:52:58;11.47;;;7.43;;
75169;SDS011;63749;49.186;9.222;2023-04-25T07:55:24;11.60;;;7.63;;
75169;SDS011;63749;49.186;9.222;2023-04-25T07:57:49;11.23;;;7.80;;
75169;SDS011;63749;49.186;9.222;2023-04-25T08:00:15;9.87;;;7.13;;
75169;SDS011;63749;49.186;9.222;2023-04-25T08:02:40;11.10;;;7.13;;
75169;SDS011;63749;49.186;9.222;2023-04-25T08:05:05;10.17;;;6.97;;
75169;SDS011;63749;49.186;9.222;2023-04-25T08:07:33;10.23;;;7.05;;
75169;SDS011;63749;49.186;9.222;2023-04-25T08:09:59;11.00;;;7.38;;
75169;SDS011;63749;49.186;9.222;2023-04-25T08:12:24;11.97;;;7.47;;
75169;SDS011;63749;49.186;9.222;2023-04-25T08:14:49;11.13;;;7.57;;
75169;SDS011;63749;49.186;9.222;2023-04-25T08:17:15;11.13;;;7.60;;
75169;SDS011;63749;49.186;9.222;2023-04-25T08:19:41;12.13;;;7.93;;
75169;SDS011;63749;49.186;9.222;2023-04-25T08:22:06;10.70;;;7.67;;
75169;SDS011;63749;49.186;9.222;2023-04-25T08:24:32;11.50;;;7.80;;
75169;SDS011;63749;49.186;9.222;2023-04-25T08:26:57;12.23;;;8.20;;
75169;SDS011;63749;49.186;9.222;2023-04-25T08:29:23;13.37;;;8.33;;
75169;SDS011;63749;49.186;9.222;2023-04-25T08:31:50;14.32;;;8.30;;
75169;SDS011;63749;49.186;9.222;2023-04-25T08:34:17;13.43;;;8.27;;
75169;SDS011;63749;49.186;9.222;2023-04-25T08:36:43;12.20;;;8.10;;
75169;SDS011;63749;49.186;9.222;2023-04-25T08:39:08;11.17;;;7.77;;
75169;SDS011;63749;49.186;9.222;2023-04-25T08:41:34;10.63;;;7.78;;
75169;SDS011;63749;49.186;9.222;2023-04-25T08:44:05;12.57;;;7.90;;
75169;SDS011;63749;49.186;9.222;2023-04-25T08:46:35;10.73;;;7.40;;
75169;SDS011;63749;49.186;9.222;2023-04-25T08:49:03;12.27;;;7.55;;
75169;SDS011;63749;49.186;9.222;2023-04-25T08:51:30;10.80;;;8.02;;
75169;SDS011;63749;49.186;9.222;2023-04-25T08:53:57;11.45;;;7.75;;
75169;SDS011;63749;49.186;9.222;2023-04-25T08:56:34;10.87;;;7.53;;
75169;SDS011;63749;49.186;9.222;2023-04-25T08:58:59;13.18;;;8.20;;
75169;SDS011;63749;49.186;9.222;2023-04-25T09:01:26;13.82;;;6.97;;
75169;SDS011;63749;49.186;9.222;2023-04-25T09:03:52;9.35;;;5.18;;
75169;SDS011;63749;49.186;9.222;2023-04-25T09:06:18;7.97;;;4.60;;
75169;SDS011;63749;49.186;9.222;2023-04-25T09:08:44;7.20;;;4.63;;
75169;SDS011;63749;49.186;9.222;2023-04-25T09:11:10;9.07;;;5.00;;
75169;SDS011;63749;49.186;9.222;2023-04-25T09:13:37;9.10;;;5.53;;
75169;SDS011;63749;49.186;9.222;2023-04-25T09:16:03;8.55;;;5.28;;
75169;SDS011;63749;49.186;9.222;2023-04-25T09:18:30;10.23;;;6.43;;
75169;SDS011;63749;49.186;9.222;2023-04-25T09:20:58;11.38;;;6.88;;
75169;SDS011;63749;49.186;9.222;2023-04-25T09:23:40;8.75;;;6.10;;
75169;SDS011;63749;49.186;9.222;2023-04-25T09:26:10;10.65;;;6.50;;
75169;SDS011;63749;49.186;9.222;2023-04-25T09:28:39;11.70;;;6.80;;
75169;SDS011;63749;49.186;9.222;2023-04-25T09:31:05;12.15;;;6.60;;
75169;SDS011;63749;49.186;9.222;2023-04-25T09:33:32;11.50;;;7.20;;
75169;SDS011;63749;49.186;9.222;2023-04-25T09:36:05;10.05;;;6.45;;
75169;SDS011;63749;49.186;9.222;2023-04-25T09:38:32;10.02;;;6.68;;
75169;SDS011;63749;49.186;9.222;2023-04-25T09:41:06;11.30;;;6.97;;
75169;SDS011;63749;49.186;9.222;2023-04-25T09:43:32;10.88;;;7.20;;
75169;SDS011;63749;49.186;9.222;2023-04-25T09:45:57;12.07;;;7.03;;
75169;SDS011;63749;49.186;9.222;2023-04-25T09:48:25;13.00;;;7.40;;
75169;SDS011;63749;49.186;9.222;2023-04-25T09:51:04;13.07;;;7.40;;
75169;SDS011;63749;49.186;9.222;2023-04-25T09:53:33;13.07;;;8.80;;
75169;SDS011;63749;49.186;9.222;2023-04-25T09:56:06;13.48;;;8.30;;
75169;SDS011;63749;49.186;9.222;2023-04-25T09:58:33;11.18;;;7.55;;
75169;SDS011;63749;49.186;9.222;2023-04-25T10:01:01;11.88;;;7.50;;
75169;SDS011;63749;49.186;9.222;2023-04-25T10:03:32;11.53;;;7.40;;
75169;SDS011;63749;49.186;9.222;2023-04-25T10:06:00;17.17;;;6.72;;
75169;SDS011;63749;49.186;9.222;2023-04-25T10:08:34;10.45;;;6.60;;
75169;SDS011;63749;49.186;9.222;2023-04-25T10:11:02;10.55;;;6.65;;
75169;SDS011;63749;49.186;9.222;2023-04-25T10:13:30;11.85;;;6.18;;
75169;SDS011;63749;49.186;9.222;2023-04-25T10:15:58;10.37;;;6.30;;
75169;SDS011;63749;49.186;9.222;2023-04-25T10:18:27;9.23;;;6.25;;
75169;SDS011;63749;49.186;9.222;2023-04-25T10:21:00;12.18;;;6.65;;
75169;SDS011;63749;49.186;9.222;2023-04-25T10:23:27;11.82;;;7.03;;
75169;SDS011;63749;49.186;9.222;2023-04-25T10:25:55;9.80;;;6.22;;
75169;SDS011;63749;49.186;9.222;2023-04-25T10:28:21;10.53;;;6.73;;
75169;SDS011;63749;49.186;9.222;2023-04-25T10:31:07;10.03;;;6.80;;
75169;SDS011;63749;49.186;9.222;2023-04-25T10:33:34;9.93;;;6.60;;
75169;SDS011;63749;49.186;9.222;2023-04-25T10:36:11;10.60;;;7.05;;
75169;SDS011;63749;49.186;9.222;2023-04-25T10:38:38;10.23;;;6.88;;
75169;SDS011;63749;49.186;9.222;2023-04-25T10:41:05;10.52;;;6.93;;
75169;SDS011;63749;49.186;9.222;2023-04-25T10:43:37;9.98;;;7.15;;
75169;SDS011;63749;49.186;9.222;2023-04-25T10:48:46;12.48;;;7.25;;
75169;SDS011;63749;49.186;9.222;2023-04-25T10:51:17;13.73;;;6.82;;
75169;SDS011;63749;49.186;9.222;2023-04-25T10:53:44;10.73;;;6.20;;
75169;SDS011;63749;49.186;9.222;2023-04-25T10:56:19;12.10;;;6.93;;
75169;SDS011;63749;49.186;9.222;2023-04-25T10:58:46;10.50;;;6.50;;
75169;SDS011;63749;49.186;9.222;2023-04-25T11:01:13;9.93;;;6.85;;
75169;SDS011;63749;49.186;9.222;2023-04-25T11:03:42;9.70;;;6.57;;
75169;SDS011;63749;49.186;9.222;2023-04-25T11:06:20;11.80;;;6.75;;
75169;SDS011;63749;49.186;9.222;2023-04-25T11:08:52;10.68;;;7.10;;
75169;SDS011;63749;49.186;9.222;2023-04-25T11:11:18;9.53;;;6.50;;
75169;SDS011;63749;49.186;9.222;2023-04-25T11:13:44;9.35;;;6.60;;
75169;SDS011;63749;49.186;9.222;2023-04-25T11:16:13;10.70;;;6.43;;
75169;SDS011;63749;49.186;9.222;2023-04-25T11:18:40;9.00;;;6.32;;
75169;SDS011;63749;49.186;9.222;2023-04-25T11:21:06;9.27;;;6.40;;
75169;SDS011;63749;49.186;9.222;2023-04-25T11:23:31;8.80;;;6.60;;
75169;SDS011;63749;49.186;9.222;2023-04-25T11:25:57;8.83;;;6.47;;
75169;SDS011;63749;49.186;9.222;2023-04-25T11:28:22;10.93;;;6.57;;
75169;SDS011;63749;49.186;9.222;2023-04-25T11:30:51;11.50;;;7.20;;
75169;SDS011;63749;49.186;9.222;2023-04-25T11:33:16;11.53;;;6.73;;
75169;SDS011;63749;49.186;9.222;2023-04-25T11:35:42;10.63;;;5.60;;
75169;SDS011;63749;49.186;9.222;2023-04-25T11:38:07;11.23;;;6.60;;
75169;SDS011;63749;49.186;9.222;2023-04-25T11:40:33;11.38;;;6.38;;
75169;SDS011;63749;49.186;9.222;2023-04-25T11:42:59;11.47;;;6.50;;
75169;SDS011;63749;49.186;9.222;2023-04-25T11:45:25;10.23;;;6.53;;
75169;SDS011;63749;49.186;9.222;2023-04-25T11:47:51;10.85;;;6.20;;
75169;SDS011;63749;49.186;9.222;2023-04-25T11:50:17;9.03;;;5.10;;
75169;SDS011;63749;49.186;9.222;2023-04-25T11:52:43;9.13;;;4.50;;
75169;SDS011;63749;49.186;9.222;2023-04-25T11:55:09;7.43;;;4.72;;
75169;SDS011;63749;49.186;9.222;2023-04-25T11:57:36;12.45;;;5.45;;
75169;SDS011;63749;49.186;9.222;2023-04-25T12:00:06;11.65;;;5.15;;
75169;SDS011;63749;49.186;9.222;2023-04-25T12:02:36;11.80;;;5.30;;
75169;SDS011;63749;49.186;9.222;2023-04-25T12:05:01;9.65;;;5.00;;
75169;SDS011;63749;49.186;9.222;2023-04-25T12:07:31;11.85;;;5.22;;
75169;SDS011;63749;49.186;9.222;2023-04-25T12:09:56;10.83;;;5.10;;
75169;SDS011;63749;49.186;9.222;2023-04-25T12:12:22;11.73;;;5.10;;
75169;SDS011;63749;49.186;9.222;2023-04-25T12:14:52;10.13;;;4.63;;
75169;SDS011;63749;49.186;9.222;2023-04-25T12:17:20;9.37;;;4.70;;
75169;SDS011;63749;49.186;9.222;2023-04-25T12:19:46;9.88;;;3.90;;
75169;SDS011;63749;49.186;9.222;2023-04-25T12:22:19;9.33;;;4.20;;
75169;SDS011;63749;49.186;9.222;2023-04-25T12:24:48;5.95;;;4.05;;
75169;SDS011;63749;49.186;9.222;2023-04-25T12:27:15;7.93;;;3.70;;
75169;SDS011;63749;49.186;9.222;2023-04-25T12:29:54;6.38;;;3.47;;
75169;SDS011;63749;49.186;9.222;2023-04-25T12:32:20;6.07;;;3.10;;
75169;SDS011;63749;49.186;9.222;2023-04-25T12:34:46;6.93;;;3.50;;
75169;SDS011;63749;49.186;9.222;2023-04-25T12:37:11;6.63;;;3.50;;
75169;SDS011;63749;49.186;9.222;2023-04-25T12:39:36;6.87;;;3.60;;
75169;SDS011;63749;49.186;9.222;2023-04-25T12:42:02;7.50;;;3.27;;
75169;SDS011;63749;49.186;9.222;2023-04-25T12:44:28;8.48;;;4.10;;
75169;SDS011;63749;49.186;9.222;2023-04-25T12:46:53;8.97;;;4.63;;
75169;SDS011;63749;49.186;9.222;2023-04-25T12:49:19;7.18;;;4.15;;
75169;SDS011;63749;49.186;9.222;2023-04-25T12:51:45;7.23;;;4.20;;
75169;SDS011;63749;49.186;9.222;2023-04-25T12:54:10;6.33;;;3.83;;
75169;SDS011;63749;49.186;9.222;2023-04-25T12:56:36;7.03;;;3.80;;
75169;SDS011;63749;49.186;9.222;2023-04-25T12:59:01;10.23;;;4.30;;
75169;SDS011;63749;49.186;9.222;2023-04-25T13:01:28;9.02;;;4.78;;
75169;SDS011;63749;49.186;9.222;2023-04-25T13:03:54;7.53;;;4.60;;
75169;SDS011;63749;49.186;9.222;2023-04-25T13:06:20;9.27;;;4.90;;
75169;SDS011;63749;49.186;9.222;2023-04-25T13:08:45;7.95;;;5.70;;
75169;SDS011;63749;49.186;9.222;2023-04-25T13:11:11;7.93;;;5.10;;
75169;SDS011;63749;49.186;9.222;2023-04-25T13:13:37;8.07;;;5.07;;
75169;SDS011;63749;49.186;9.222;2023-04-25T13:16:05;8.65;;;5.03;;
75169;SDS011;63749;49.186;9.222;2023-04-25T13:18:32;10.85;;;5.15;;
75169;SDS011;63749;49.186;9.222;2023-04-25T13:20:57;8.80;;;5.70;;
75169;SDS011;63749;49.186;9.222;2023-04-25T13:23:24;8.98;;;5.00;;
75169;SDS011;63749;49.186;9.222;2023-04-25T13:25:51;7.77;;;5.00;;
75169;SDS011;63749;49.186;9.222;2023-04-25T13:28:16;8.27;;;4.88;;
75169;SDS011;63749;49.186;9.222;2023-04-25T13:30:42;9.13;;;4.77;;
75169;SDS011;63749;49.186;9.222;2023-04-25T13:33:07;7.47;;;3.72;;
75169;SDS011;63749;49.186;9.222;2023-04-25T13:35:34;4.83;;;3.17;;
75169;SDS011;63749;49.186;9.222;2023-04-25T13:38:02;5.18;;;3.60;;
75169;SDS011;63749;49.186;9.222;2023-04-25T13:40:27;6.97;;;3.40;;
75169;SDS011;63749;49.186;9.222;2023-04-25T13:42:53;5.30;;;3.40;;
75169;SDS011;63749;49.186;9.222;2023-04-25T13:45:19;3.40;;;2.83;;
75169;SDS011;63749;49.186;9.222;2023-04-25T13:47:45;3.85;;;2.40;;
75169;SDS011;63749;49.186;9.222;2023-04-25T13:50:10;3.20;;;2.35;;
75169;SDS011;63749;49.186;9.222;2023-04-25T13:52:36;2.73;;;2.27;;
75169;SDS011;63749;49.186;9.222;2023-04-25T13:55:01;5.03;;;3.57;;
75169;SDS011;63749;49.186;9.222;2023-04-25T13:57:28;4.15;;;3.33;;
75169;SDS011;63749;49.186;9.222;2023-04-25T13:59:55;3.90;;;2.63;;
75169;SDS011;63749;49.186;9.222;2023-04-25T14:02:20;3.87;;;2.97;;
75169;SDS011;63749;49.186;9.222;2023-04-25T14:04:46;5.27;;;3.03;;
75169;SDS011;63749;49.186;9.222;2023-04-25T14:07:11;5.50;;;3.30;;
75169;SDS011;63749;49.186;9.222;2023-04-25T14:09:37;6.03;;;3.30;;
75169;SDS011;63749;49.186;9.222;2023-04-25T14:12:02;4.53;;;3.63;;
75169;SDS011;63749;49.186;9.222;2023-04-25T14:14:28;5.07;;;3.37;;
75169;SDS011;63749;49.186;9.222;2023-04-25T14:16:53;5.13;;;3.30;;
75169;SDS011;63749;49.186;9.222;2023-04-25T14:19:19;6.73;;;3.20;;
75169;SDS011;63749;49.186;9.222;2023-04-25T14:21:48;6.10;;;3.28;;
75169;SDS011;63749;49.186;9.222;2023-04-25T14:24:14;7.67;;;3.83;;
75169;SDS011;63749;49.186;9.222;2023-04-25T14:26:39;6.25;;;3.72;;
75169;SDS011;63749;49.186;9.222;2023-04-25T14:29:06;6.67;;;3.17;;
75169;SDS011;63749;49.186;9.222;2023-04-25T14:31:32;4.20;;;3.30;;
75169;SDS011;63749;49.186;9.222;2023-04-25T14:33:58;5.40;;;4.07;;
75169;SDS011;63749;49.186;9.222;2023-04-25T14:36:24;5.82;;;4.60;;
75169;SDS011;63749;49.186;9.222;2023-04-25T14:38:51;5.33;;;3.90;;